sensor_id;sensor_type;location;lat;lon;timestamp;P1;durP1;ratioP1;P2;durP2;ratioP2
46705;SDS011;33519;50.712;7.124;2022-12-10T00:01:05;67.03;;;33.35;;
46705;SDS011;33519;50.712;7.124;2022-12-10T00:03:35;63.83;;;33.22;;
46705;SDS011;33519;50.712;7.124;2022-12-10T00:06:03;62.17;;;33.40;;
46705;SDS011;33519;50.712;7.124;2022-12-10T00:08:31;63.47;;;33.67;;
46705;SDS011;33519;50.712;7.124;2022-12-10T00:10:58;70.10;;;35.30;;
46705;SDS011;33519;50.712;7.124;2022-12-10T00:13:25;71.28;;;35.75;;
46705;SDS011;33519;50.712;7.124;2022-12-10T00:15:52;67.10;;;35.38;;
46705;SDS011;33519;50.712;7.124;2022-12-10T00:18:19;71.93;;;35.53;;
46705;SDS011;33519;50.712;7.124;2022-12-10T00:20:45;73.15;;;34.92;;
46705;SDS011;33519;50.712;7.124;2022-12-10T00:23:12;61.17;;;31.02;;
46705;SDS011;33519;50.712;7.124;2022-12-10T00:25:45;62.95;;;33.13;;
46705;SDS011;33519;50.712;7.124;2022-12-10T00:28:11;68.90;;;33.97;;
46705;SDS011;33519;50.712;7.124;2022-12-10T00:30:38;65.45;;;32.58;;
46705;SDS011;33519;50.712;7.124;2022-12-10T00:33:05;62.17;;;32.38;;
46705;SDS011;33519;50.712;7.124;2022-12-10T00:35:34;63.03;;;33.25;;
46705;SDS011;33519;50.712;7.124;2022-12-10T00:38:02;55.17;;;32.25;;
46705;SDS011;33519;50.712;7.124;2022-12-10T00:40:29;61.17;;;32.03;;
46705;SDS011;33519;50.712;7.124;2022-12-10T00:42:56;56.45;;;30.55;;
46705;SDS011;33519;50.712;7.124;2022-12-10T00:45:22;55.97;;;29.75;;
46705;SDS011;33519;50.712;7.124;2022-12-10T00:47:49;59.70;;;28.55;;
46705;SDS011;33519;50.712;7.124;2022-12-10T00:50:16;58.53;;;30.40;;
46705;SDS011;33519;50.712;7.124;2022-12-10T00:52:43;51.90;;;29.90;;
46705;SDS011;33519;50.712;7.124;2022-12-10T00:55:09;49.33;;;27.73;;
46705;SDS011;33519;50.712;7.124;2022-12-10T00:57:36;52.60;;;29.40;;
46705;SDS011;33519;50.712;7.124;2022-12-10T01:00:03;46.97;;;27.85;;
46705;SDS011;33519;50.712;7.124;2022-12-10T01:02:30;57.80;;;31.23;;
46705;SDS011;33519;50.712;7.124;2022-12-10T01:04:57;54.65;;;29.95;;
46705;SDS011;33519;50.712;7.124;2022-12-10T01:07:23;50.53;;;28.33;;
46705;SDS011;33519;50.712;7.124;2022-12-10T01:09:50;50.92;;;28.23;;
46705;SDS011;33519;50.712;7.124;2022-12-10T01:12:17;49.53;;;27.08;;
46705;SDS011;33519;50.712;7.124;2022-12-10T01:14:43;47.97;;;28.95;;
46705;SDS011;33519;50.712;7.124;2022-12-10T01:17:10;56.50;;;29.38;;
46705;SDS011;33519;50.712;7.124;2022-12-10T01:19:37;54.28;;;30.27;;
46705;SDS011;33519;50.712;7.124;2022-12-10T01:22:03;50.40;;;28.70;;
46705;SDS011;33519;50.712;7.124;2022-12-10T01:24:30;53.38;;;28.92;;
46705;SDS011;33519;50.712;7.124;2022-12-10T01:26:57;49.88;;;28.58;;
46705;SDS011;33519;50.712;7.124;2022-12-10T01:31:54;55.97;;;31.92;;
46705;SDS011;33519;50.712;7.124;2022-12-10T01:34:23;58.22;;;31.13;;
46705;SDS011;33519;50.712;7.124;2022-12-10T01:36:52;54.88;;;28.30;;
46705;SDS011;33519;50.712;7.124;2022-12-10T01:39:20;57.58;;;30.42;;
46705;SDS011;33519;50.712;7.124;2022-12-10T01:41:49;46.58;;;27.52;;
46705;SDS011;33519;50.712;7.124;2022-12-10T01:46:49;51.85;;;30.00;;
46705;SDS011;33519;50.712;7.124;2022-12-10T01:49:22;56.97;;;30.85;;
46705;SDS011;33519;50.712;7.124;2022-12-10T01:51:52;48.20;;;28.63;;
46705;SDS011;33519;50.712;7.124;2022-12-10T01:54:22;51.17;;;31.25;;
46705;SDS011;33519;50.712;7.124;2022-12-10T01:56:59;51.50;;;28.58;;
46705;SDS011;33519;50.712;7.124;2022-12-10T02:05:22;51.35;;;29.33;;
46705;SDS011;33519;50.712;7.124;2022-12-10T02:13:17;59.33;;;29.95;;
46705;SDS011;33519;50.712;7.124;2022-12-10T02:16:08;58.58;;;30.02;;
46705;SDS011;33519;50.712;7.124;2022-12-10T02:21:21;58.80;;;30.70;;
46705;SDS011;33519;50.712;7.124;2022-12-10T02:23:56;56.60;;;32.00;;
46705;SDS011;33519;50.712;7.124;2022-12-10T02:31:39;57.58;;;28.90;;
46705;SDS011;33519;50.712;7.124;2022-12-10T02:34:10;63.42;;;30.05;;
46705;SDS011;33519;50.712;7.124;2022-12-10T02:36:38;59.90;;;32.42;;
46705;SDS011;33519;50.712;7.124;2022-12-10T02:39:11;47.53;;;29.13;;
46705;SDS011;33519;50.712;7.124;2022-12-10T02:41:41;48.53;;;28.75;;
46705;SDS011;33519;50.712;7.124;2022-12-10T02:44:11;47.28;;;28.77;;
46705;SDS011;33519;50.712;7.124;2022-12-10T02:46:40;57.47;;;29.00;;
46705;SDS011;33519;50.712;7.124;2022-12-10T02:49:08;50.83;;;29.25;;
46705;SDS011;33519;50.712;7.124;2022-12-10T02:51:39;50.35;;;30.25;;
46705;SDS011;33519;50.712;7.124;2022-12-10T02:54:32;56.35;;;32.20;;
46705;SDS011;33519;50.712;7.124;2022-12-10T03:02:45;50.65;;;32.03;;
46705;SDS011;33519;50.712;7.124;2022-12-10T03:08:23;55.22;;;30.58;;
46705;SDS011;33519;50.712;7.124;2022-12-10T03:10:59;53.53;;;30.88;;
46705;SDS011;33519;50.712;7.124;2022-12-10T03:13:38;60.60;;;30.65;;
46705;SDS011;33519;50.712;7.124;2022-12-10T03:16:15;56.70;;;32.40;;
46705;SDS011;33519;50.712;7.124;2022-12-10T03:18:43;63.25;;;33.42;;
46705;SDS011;33519;50.712;7.124;2022-12-10T03:21:12;49.20;;;27.83;;
46705;SDS011;33519;50.712;7.124;2022-12-10T03:23:40;52.63;;;29.83;;
46705;SDS011;33519;50.712;7.124;2022-12-10T03:26:14;52.78;;;28.95;;
46705;SDS011;33519;50.712;7.124;2022-12-10T03:28:42;49.97;;;28.30;;
46705;SDS011;33519;50.712;7.124;2022-12-10T03:31:16;51.92;;;29.77;;
46705;SDS011;33519;50.712;7.124;2022-12-10T03:33:44;61.25;;;33.03;;
46705;SDS011;33519;50.712;7.124;2022-12-10T03:36:13;59.10;;;32.55;;
46705;SDS011;33519;50.712;7.124;2022-12-10T03:38:40;51.45;;;30.67;;
46705;SDS011;33519;50.712;7.124;2022-12-10T03:41:08;51.20;;;30.42;;
46705;SDS011;33519;50.712;7.124;2022-12-10T03:43:34;52.30;;;30.30;;
46705;SDS011;33519;50.712;7.124;2022-12-10T03:46:01;58.65;;;33.25;;
46705;SDS011;33519;50.712;7.124;2022-12-10T03:48:28;56.03;;;30.48;;
46705;SDS011;33519;50.712;7.124;2022-12-10T03:50:55;57.15;;;30.88;;
46705;SDS011;33519;50.712;7.124;2022-12-10T03:53:21;62.83;;;31.73;;
46705;SDS011;33519;50.712;7.124;2022-12-10T03:55:48;61.40;;;33.10;;
46705;SDS011;33519;50.712;7.124;2022-12-10T03:58:14;70.03;;;36.97;;
46705;SDS011;33519;50.712;7.124;2022-12-10T04:00:45;74.78;;;36.95;;
46705;SDS011;33519;50.712;7.124;2022-12-10T04:03:15;74.57;;;34.00;;
46705;SDS011;33519;50.712;7.124;2022-12-10T04:05:41;76.35;;;37.33;;
46705;SDS011;33519;50.712;7.124;2022-12-10T04:08:08;75.72;;;35.80;;
46705;SDS011;33519;50.712;7.124;2022-12-10T04:10:35;72.63;;;36.70;;
46705;SDS011;33519;50.712;7.124;2022-12-10T04:13:03;71.85;;;34.47;;
46705;SDS011;33519;50.712;7.124;2022-12-10T04:15:48;67.10;;;31.73;;
46705;SDS011;33519;50.712;7.124;2022-12-10T04:18:33;62.30;;;32.50;;
46705;SDS011;33519;50.712;7.124;2022-12-10T04:21:00;58.60;;;32.60;;
46705;SDS011;33519;50.712;7.124;2022-12-10T04:23:45;63.20;;;33.03;;
46705;SDS011;33519;50.712;7.124;2022-12-10T04:26:41;59.83;;;31.95;;
46705;SDS011;33519;50.712;7.124;2022-12-10T04:29:22;54.42;;;30.48;;
46705;SDS011;33519;50.712;7.124;2022-12-10T04:31:50;61.60;;;30.57;;
46705;SDS011;33519;50.712;7.124;2022-12-10T04:34:17;62.65;;;30.75;;
46705;SDS011;33519;50.712;7.124;2022-12-10T04:36:44;68.13;;;34.75;;
46705;SDS011;33519;50.712;7.124;2022-12-10T04:39:11;65.40;;;33.70;;
46705;SDS011;33519;50.712;7.124;2022-12-10T04:41:41;72.28;;;34.33;;
46705;SDS011;33519;50.712;7.124;2022-12-10T04:44:11;57.05;;;32.17;;
46705;SDS011;33519;50.712;7.124;2022-12-10T04:46:38;65.82;;;33.85;;
46705;SDS011;33519;50.712;7.124;2022-12-10T04:49:05;66.68;;;32.88;;
46705;SDS011;33519;50.712;7.124;2022-12-10T04:51:33;62.97;;;32.60;;
46705;SDS011;33519;50.712;7.124;2022-12-10T04:53:59;66.80;;;34.85;;
46705;SDS011;33519;50.712;7.124;2022-12-10T04:56:27;73.57;;;33.15;;
46705;SDS011;33519;50.712;7.124;2022-12-10T04:58:55;63.75;;;33.92;;
46705;SDS011;33519;50.712;7.124;2022-12-10T05:01:22;77.53;;;34.27;;
46705;SDS011;33519;50.712;7.124;2022-12-10T05:03:49;71.53;;;34.03;;
46705;SDS011;33519;50.712;7.124;2022-12-10T05:06:17;62.63;;;34.08;;
46705;SDS011;33519;50.712;7.124;2022-12-10T05:08:44;70.13;;;33.75;;
46705;SDS011;33519;50.712;7.124;2022-12-10T05:11:13;63.38;;;32.78;;
46705;SDS011;33519;50.712;7.124;2022-12-10T05:13:41;60.55;;;31.70;;
46705;SDS011;33519;50.712;7.124;2022-12-10T05:16:09;59.70;;;31.98;;
46705;SDS011;33519;50.712;7.124;2022-12-10T05:18:37;56.88;;;31.20;;
46705;SDS011;33519;50.712;7.124;2022-12-10T05:21:06;54.55;;;31.52;;
46705;SDS011;33519;50.712;7.124;2022-12-10T05:23:38;60.20;;;31.42;;
46705;SDS011;33519;50.712;7.124;2022-12-10T05:26:07;49.95;;;28.50;;
46705;SDS011;33519;50.712;7.124;2022-12-10T05:28:37;59.72;;;32.15;;
46705;SDS011;33519;50.712;7.124;2022-12-10T05:31:15;61.03;;;32.97;;
46705;SDS011;33519;50.712;7.124;2022-12-10T05:33:50;58.78;;;30.85;;
46705;SDS011;33519;50.712;7.124;2022-12-10T05:36:18;70.55;;;34.22;;
46705;SDS011;33519;50.712;7.124;2022-12-10T05:38:47;61.60;;;32.40;;
46705;SDS011;33519;50.712;7.124;2022-12-10T05:41:16;57.38;;;31.80;;
46705;SDS011;33519;50.712;7.124;2022-12-10T05:43:44;58.67;;;30.77;;
46705;SDS011;33519;50.712;7.124;2022-12-10T05:46:13;62.83;;;32.85;;
46705;SDS011;33519;50.712;7.124;2022-12-10T05:48:44;69.03;;;34.85;;
46705;SDS011;33519;50.712;7.124;2022-12-10T05:51:13;59.47;;;33.05;;
46705;SDS011;33519;50.712;7.124;2022-12-10T05:53:42;71.72;;;34.38;;
46705;SDS011;33519;50.712;7.124;2022-12-10T05:56:10;68.85;;;34.25;;
46705;SDS011;33519;50.712;7.124;2022-12-10T05:58:39;69.88;;;36.30;;
46705;SDS011;33519;50.712;7.124;2022-12-10T06:01:07;74.57;;;34.72;;
46705;SDS011;33519;50.712;7.124;2022-12-10T06:03:45;64.82;;;33.15;;
46705;SDS011;33519;50.712;7.124;2022-12-10T06:06:12;65.22;;;33.70;;
46705;SDS011;33519;50.712;7.124;2022-12-10T06:08:39;65.25;;;32.15;;
46705;SDS011;33519;50.712;7.124;2022-12-10T06:11:08;55.80;;;28.33;;
46705;SDS011;33519;50.712;7.124;2022-12-10T06:13:36;58.30;;;29.35;;
46705;SDS011;33519;50.712;7.124;2022-12-10T06:16:04;57.58;;;29.92;;
46705;SDS011;33519;50.712;7.124;2022-12-10T06:18:32;56.92;;;28.98;;
46705;SDS011;33519;50.712;7.124;2022-12-10T06:20:59;41.45;;;23.30;;
46705;SDS011;33519;50.712;7.124;2022-12-10T06:23:37;49.50;;;25.73;;
46705;SDS011;33519;50.712;7.124;2022-12-10T06:26:05;38.92;;;21.15;;
46705;SDS011;33519;50.712;7.124;2022-12-10T06:28:36;42.10;;;24.38;;
46705;SDS011;33519;50.712;7.124;2022-12-10T06:31:03;41.20;;;22.10;;
46705;SDS011;33519;50.712;7.124;2022-12-10T06:33:30;38.55;;;21.15;;
46705;SDS011;33519;50.712;7.124;2022-12-10T06:35:58;45.40;;;24.92;;
46705;SDS011;33519;50.712;7.124;2022-12-10T06:38:25;44.55;;;25.52;;
46705;SDS011;33519;50.712;7.124;2022-12-10T06:40:52;46.90;;;25.75;;
46705;SDS011;33519;50.712;7.124;2022-12-10T06:43:18;45.83;;;24.40;;
46705;SDS011;33519;50.712;7.124;2022-12-10T06:45:45;45.00;;;24.60;;
46705;SDS011;33519;50.712;7.124;2022-12-10T06:48:11;40.47;;;24.40;;
46705;SDS011;33519;50.712;7.124;2022-12-10T06:50:38;40.85;;;24.35;;
46705;SDS011;33519;50.712;7.124;2022-12-10T06:53:05;54.30;;;25.85;;
46705;SDS011;33519;50.712;7.124;2022-12-10T06:55:31;42.20;;;23.80;;
46705;SDS011;33519;50.712;7.124;2022-12-10T06:57:58;42.63;;;24.77;;
46705;SDS011;33519;50.712;7.124;2022-12-10T07:00:25;47.17;;;25.83;;
46705;SDS011;33519;50.712;7.124;2022-12-10T07:02:51;49.35;;;25.60;;
46705;SDS011;33519;50.712;7.124;2022-12-10T07:05:18;38.90;;;23.00;;
46705;SDS011;33519;50.712;7.124;2022-12-10T07:07:45;37.60;;;23.65;;
46705;SDS011;33519;50.712;7.124;2022-12-10T07:10:12;42.10;;;23.23;;
46705;SDS011;33519;50.712;7.124;2022-12-10T07:12:39;39.80;;;24.48;;
46705;SDS011;33519;50.712;7.124;2022-12-10T07:15:06;41.38;;;23.45;;
46705;SDS011;33519;50.712;7.124;2022-12-10T07:17:33;38.80;;;23.10;;
46705;SDS011;33519;50.712;7.124;2022-12-10T07:19:59;39.58;;;21.52;;
46705;SDS011;33519;50.712;7.124;2022-12-10T07:22:26;40.33;;;23.00;;
46705;SDS011;33519;50.712;7.124;2022-12-10T07:24:52;36.55;;;22.83;;
46705;SDS011;33519;50.712;7.124;2022-12-10T07:27:19;40.13;;;23.25;;
46705;SDS011;33519;50.712;7.124;2022-12-10T07:29:46;35.30;;;20.92;;
46705;SDS011;33519;50.712;7.124;2022-12-10T07:32:13;39.33;;;23.08;;
46705;SDS011;33519;50.712;7.124;2022-12-10T07:34:39;39.92;;;23.70;;
46705;SDS011;33519;50.712;7.124;2022-12-10T07:37:06;40.67;;;23.15;;
46705;SDS011;33519;50.712;7.124;2022-12-10T07:39:33;45.25;;;24.73;;
46705;SDS011;33519;50.712;7.124;2022-12-10T07:41:59;39.38;;;23.08;;
46705;SDS011;33519;50.712;7.124;2022-12-10T07:44:26;41.40;;;24.30;;
46705;SDS011;33519;50.712;7.124;2022-12-10T07:46:53;46.38;;;23.80;;
46705;SDS011;33519;50.712;7.124;2022-12-10T07:49:21;40.25;;;24.77;;
46705;SDS011;33519;50.712;7.124;2022-12-10T07:51:48;41.13;;;24.00;;
46705;SDS011;33519;50.712;7.124;2022-12-10T07:54:16;40.25;;;24.70;;
46705;SDS011;33519;50.712;7.124;2022-12-10T07:56:46;46.15;;;24.70;;
46705;SDS011;33519;50.712;7.124;2022-12-10T07:59:12;38.15;;;21.75;;
46705;SDS011;33519;50.712;7.124;2022-12-10T08:01:39;35.85;;;23.50;;
46705;SDS011;33519;50.712;7.124;2022-12-10T08:04:06;36.75;;;22.25;;
46705;SDS011;33519;50.712;7.124;2022-12-10T08:06:33;36.60;;;22.67;;
46705;SDS011;33519;50.712;7.124;2022-12-10T08:09:01;40.50;;;23.70;;
46705;SDS011;33519;50.712;7.124;2022-12-10T08:11:27;34.53;;;21.92;;
46705;SDS011;33519;50.712;7.124;2022-12-10T08:13:54;37.35;;;23.85;;
46705;SDS011;33519;50.712;7.124;2022-12-10T08:16:23;39.70;;;24.10;;
46705;SDS011;33519;50.712;7.124;2022-12-10T08:18:52;39.35;;;22.38;;
46705;SDS011;33519;50.712;7.124;2022-12-10T08:21:21;36.90;;;21.95;;
46705;SDS011;33519;50.712;7.124;2022-12-10T08:23:50;40.40;;;23.25;;
46705;SDS011;33519;50.712;7.124;2022-12-10T08:26:20;32.03;;;20.70;;
46705;SDS011;33519;50.712;7.124;2022-12-10T08:28:50;38.70;;;24.02;;
46705;SDS011;33519;50.712;7.124;2022-12-10T08:31:18;36.00;;;22.67;;
46705;SDS011;33519;50.712;7.124;2022-12-10T08:33:46;37.38;;;22.45;;
46705;SDS011;33519;50.712;7.124;2022-12-10T08:36:13;35.30;;;22.40;;
46705;SDS011;33519;50.712;7.124;2022-12-10T08:38:41;43.53;;;23.65;;
46705;SDS011;33519;50.712;7.124;2022-12-10T08:41:09;40.00;;;22.48;;
46705;SDS011;33519;50.712;7.124;2022-12-10T08:43:37;38.58;;;22.20;;
46705;SDS011;33519;50.712;7.124;2022-12-10T08:46:04;39.42;;;23.15;;
46705;SDS011;33519;50.712;7.124;2022-12-10T08:48:32;32.60;;;22.77;;
46705;SDS011;33519;50.712;7.124;2022-12-10T08:50:59;35.05;;;22.70;;
46705;SDS011;33519;50.712;7.124;2022-12-10T08:53:26;35.15;;;22.08;;
46705;SDS011;33519;50.712;7.124;2022-12-10T08:55:53;36.25;;;22.98;;
46705;SDS011;33519;50.712;7.124;2022-12-10T08:58:20;33.28;;;21.63;;
46705;SDS011;33519;50.712;7.124;2022-12-10T09:00:47;35.13;;;21.23;;
46705;SDS011;33519;50.712;7.124;2022-12-10T09:03:15;37.03;;;21.40;;
46705;SDS011;33519;50.712;7.124;2022-12-10T09:05:42;33.15;;;21.25;;
46705;SDS011;33519;50.712;7.124;2022-12-10T09:08:09;34.10;;;20.77;;
46705;SDS011;33519;50.712;7.124;2022-12-10T09:10:39;34.28;;;21.88;;
46705;SDS011;33519;50.712;7.124;2022-12-10T09:13:07;35.05;;;21.52;;
46705;SDS011;33519;50.712;7.124;2022-12-10T09:15:33;32.33;;;20.88;;
46705;SDS011;33519;50.712;7.124;2022-12-10T09:18:00;35.83;;;23.00;;
46705;SDS011;33519;50.712;7.124;2022-12-10T09:20:27;37.75;;;22.67;;
46705;SDS011;33519;50.712;7.124;2022-12-10T09:22:54;34.25;;;22.33;;
46705;SDS011;33519;50.712;7.124;2022-12-10T09:25:20;35.45;;;21.98;;
46705;SDS011;33519;50.712;7.124;2022-12-10T09:27:47;40.25;;;23.70;;
46705;SDS011;33519;50.712;7.124;2022-12-10T09:30:14;41.72;;;24.48;;
46705;SDS011;33519;50.712;7.124;2022-12-10T09:32:41;35.42;;;23.08;;
46705;SDS011;33519;50.712;7.124;2022-12-10T09:35:08;39.38;;;22.15;;
46705;SDS011;33519;50.712;7.124;2022-12-10T09:37:35;37.95;;;23.98;;
46705;SDS011;33519;50.712;7.124;2022-12-10T09:40:01;43.38;;;24.35;;
46705;SDS011;33519;50.712;7.124;2022-12-10T09:42:48;39.95;;;24.30;;
46705;SDS011;33519;50.712;7.124;2022-12-10T09:48:50;32.97;;;20.13;;
46705;SDS011;33519;50.712;7.124;2022-12-10T09:51:29;36.63;;;20.85;;
46705;SDS011;33519;50.712;7.124;2022-12-10T09:53:57;29.55;;;18.58;;
46705;SDS011;33519;50.712;7.124;2022-12-10T09:56:32;32.72;;;19.23;;
46705;SDS011;33519;50.712;7.124;2022-12-10T09:59:10;30.70;;;17.88;;
46705;SDS011;33519;50.712;7.124;2022-12-10T10:01:50;33.47;;;18.65;;
46705;SDS011;33519;50.712;7.124;2022-12-10T10:06:55;30.80;;;18.52;;
46705;SDS011;33519;50.712;7.124;2022-12-10T10:09:23;33.63;;;19.85;;
46705;SDS011;33519;50.712;7.124;2022-12-10T10:11:50;32.50;;;18.77;;
46705;SDS011;33519;50.712;7.124;2022-12-10T10:14:22;32.47;;;18.65;;
46705;SDS011;33519;50.712;7.124;2022-12-10T10:16:54;27.30;;;17.73;;
46705;SDS011;33519;50.712;7.124;2022-12-10T10:19:30;32.65;;;18.88;;
46705;SDS011;33519;50.712;7.124;2022-12-10T10:22:00;35.30;;;20.52;;
46705;SDS011;33519;50.712;7.124;2022-12-10T10:24:28;37.03;;;20.65;;
46705;SDS011;33519;50.712;7.124;2022-12-10T10:27:10;30.38;;;19.50;;
46705;SDS011;33519;50.712;7.124;2022-12-10T10:29:43;36.05;;;20.48;;
46705;SDS011;33519;50.712;7.124;2022-12-10T10:32:13;35.38;;;19.80;;
46705;SDS011;33519;50.712;7.124;2022-12-10T10:34:59;31.23;;;17.50;;
46705;SDS011;33519;50.712;7.124;2022-12-10T10:37:27;31.13;;;18.85;;
46705;SDS011;33519;50.712;7.124;2022-12-10T10:39:57;32.53;;;18.85;;
46705;SDS011;33519;50.712;7.124;2022-12-10T10:42:32;38.75;;;21.23;;
46705;SDS011;33519;50.712;7.124;2022-12-10T10:45:03;38.42;;;20.08;;
46705;SDS011;33519;50.712;7.124;2022-12-10T10:47:32;32.25;;;20.50;;
46705;SDS011;33519;50.712;7.124;2022-12-10T10:50:04;38.28;;;20.50;;
46705;SDS011;33519;50.712;7.124;2022-12-10T10:52:36;33.80;;;18.93;;
46705;SDS011;33519;50.712;7.124;2022-12-10T10:55:04;32.30;;;20.27;;
46705;SDS011;33519;50.712;7.124;2022-12-10T10:57:34;34.53;;;19.85;;
46705;SDS011;33519;50.712;7.124;2022-12-10T11:02:35;34.30;;;19.70;;
46705;SDS011;33519;50.712;7.124;2022-12-10T11:05:07;31.73;;;18.50;;
46705;SDS011;33519;50.712;7.124;2022-12-10T11:07:42;36.95;;;19.80;;
46705;SDS011;33519;50.712;7.124;2022-12-10T11:10:23;31.55;;;18.40;;
46705;SDS011;33519;50.712;7.124;2022-12-10T11:12:58;29.55;;;18.40;;
46705;SDS011;33519;50.712;7.124;2022-12-10T11:17:59;29.77;;;16.40;;
46705;SDS011;33519;50.712;7.124;2022-12-10T11:20:29;30.25;;;18.50;;
46705;SDS011;33519;50.712;7.124;2022-12-10T11:23:09;31.92;;;19.17;;
46705;SDS011;33519;50.712;7.124;2022-12-10T11:28:37;29.83;;;17.83;;
46705;SDS011;33519;50.712;7.124;2022-12-10T11:31:25;26.00;;;15.48;;
46705;SDS011;33519;50.712;7.124;2022-12-10T11:34:18;28.20;;;17.13;;
46705;SDS011;33519;50.712;7.124;2022-12-10T11:47:57;28.35;;;16.02;;
46705;SDS011;33519;50.712;7.124;2022-12-10T11:50:41;29.45;;;16.63;;
46705;SDS011;33519;50.712;7.124;2022-12-10T12:01:16;26.02;;;14.98;;
46705;SDS011;33519;50.712;7.124;2022-12-10T12:04:16;24.83;;;14.98;;
46705;SDS011;33519;50.712;7.124;2022-12-10T12:15:19;28.63;;;15.85;;
46705;SDS011;33519;50.712;7.124;2022-12-10T12:17:55;26.85;;;15.48;;
46705;SDS011;33519;50.712;7.124;2022-12-10T12:20:36;25.42;;;15.25;;
46705;SDS011;33519;50.712;7.124;2022-12-10T12:23:10;28.08;;;16.08;;
46705;SDS011;33519;50.712;7.124;2022-12-10T12:25:45;29.67;;;16.23;;
46705;SDS011;33519;50.712;7.124;2022-12-10T12:28:16;29.02;;;16.45;;
46705;SDS011;33519;50.712;7.124;2022-12-10T12:30:53;33.15;;;18.00;;
46705;SDS011;33519;50.712;7.124;2022-12-10T12:33:39;28.13;;;15.48;;
46705;SDS011;33519;50.712;7.124;2022-12-10T12:36:13;26.02;;;16.77;;
46705;SDS011;33519;50.712;7.124;2022-12-10T12:41:27;30.50;;;17.42;;
46705;SDS011;33519;50.712;7.124;2022-12-10T12:46:39;24.98;;;17.10;;
46705;SDS011;33519;50.712;7.124;2022-12-10T12:51:58;30.33;;;16.85;;
46705;SDS011;33519;50.712;7.124;2022-12-10T12:54:29;33.70;;;18.08;;
46705;SDS011;33519;50.712;7.124;2022-12-10T12:56:59;32.70;;;17.13;;
46705;SDS011;33519;50.712;7.124;2022-12-10T12:59:36;29.15;;;16.85;;
46705;SDS011;33519;50.712;7.124;2022-12-10T13:05:20;33.30;;;18.88;;
46705;SDS011;33519;50.712;7.124;2022-12-10T13:13:37;27.65;;;17.17;;
46705;SDS011;33519;50.712;7.124;2022-12-10T13:16:35;28.35;;;16.92;;
46705;SDS011;33519;50.712;7.124;2022-12-10T13:19:40;30.98;;;18.35;;
46705;SDS011;33519;50.712;7.124;2022-12-10T13:22:02;32.88;;;17.38;;
46705;SDS011;33519;50.712;7.124;2022-12-10T13:29:58;35.45;;;19.98;;
46705;SDS011;33519;50.712;7.124;2022-12-10T13:37:36;34.58;;;19.52;;
46705;SDS011;33519;50.712;7.124;2022-12-10T13:40:36;28.67;;;18.45;;
46705;SDS011;33519;50.712;7.124;2022-12-10T13:43:36;30.05;;;17.63;;
46705;SDS011;33519;50.712;7.124;2022-12-10T13:46:31;27.40;;;17.27;;
46705;SDS011;33519;50.712;7.124;2022-12-10T13:49:00;33.75;;;19.10;;
46705;SDS011;33519;50.712;7.124;2022-12-10T13:54:19;26.77;;;17.23;;
46705;SDS011;33519;50.712;7.124;2022-12-10T14:02:37;28.30;;;18.05;;
46705;SDS011;33519;50.712;7.124;2022-12-10T14:05:27;34.90;;;20.33;;
46705;SDS011;33519;50.712;7.124;2022-12-10T14:08:12;33.55;;;20.08;;
46705;SDS011;33519;50.712;7.124;2022-12-10T14:10:42;33.75;;;19.35;;
46705;SDS011;33519;50.712;7.124;2022-12-10T14:13:11;31.75;;;18.80;;
46705;SDS011;33519;50.712;7.124;2022-12-10T14:15:41;34.88;;;19.83;;
46705;SDS011;33519;50.712;7.124;2022-12-10T14:18:18;34.70;;;20.38;;
46705;SDS011;33519;50.712;7.124;2022-12-10T14:20:45;33.95;;;18.70;;
46705;SDS011;33519;50.712;7.124;2022-12-10T14:26:03;32.63;;;18.83;;
46705;SDS011;33519;50.712;7.124;2022-12-10T14:28:43;31.65;;;19.48;;
46705;SDS011;33519;50.712;7.124;2022-12-10T14:33:51;33.17;;;18.83;;
46705;SDS011;33519;50.712;7.124;2022-12-10T14:36:27;38.97;;;19.45;;
46705;SDS011;33519;50.712;7.124;2022-12-10T14:39:15;34.65;;;19.17;;
46705;SDS011;33519;50.712;7.124;2022-12-10T14:41:48;32.95;;;18.15;;
46705;SDS011;33519;50.712;7.124;2022-12-10T14:44:17;30.40;;;18.65;;
46705;SDS011;33519;50.712;7.124;2022-12-10T14:46:46;29.35;;;18.50;;
46705;SDS011;33519;50.712;7.124;2022-12-10T14:49:20;30.00;;;18.95;;
46705;SDS011;33519;50.712;7.124;2022-12-10T14:51:49;45.28;;;18.40;;
46705;SDS011;33519;50.712;7.124;2022-12-10T14:54:30;35.45;;;18.00;;
46705;SDS011;33519;50.712;7.124;2022-12-10T14:57:04;35.50;;;18.15;;
46705;SDS011;33519;50.712;7.124;2022-12-10T14:59:47;32.70;;;19.70;;
46705;SDS011;33519;50.712;7.124;2022-12-10T15:02:22;35.60;;;17.50;;
46705;SDS011;33519;50.712;7.124;2022-12-10T15:04:53;35.42;;;19.65;;
46705;SDS011;33519;50.712;7.124;2022-12-10T15:07:22;39.00;;;21.20;;
46705;SDS011;33519;50.712;7.124;2022-12-10T15:09:51;31.95;;;19.25;;
46705;SDS011;33519;50.712;7.124;2022-12-10T15:12:23;32.15;;;18.35;;
46705;SDS011;33519;50.712;7.124;2022-12-10T15:14:59;34.60;;;20.52;;
46705;SDS011;33519;50.712;7.124;2022-12-10T15:17:41;35.67;;;20.42;;
46705;SDS011;33519;50.712;7.124;2022-12-10T15:20:10;37.38;;;20.73;;
46705;SDS011;33519;50.712;7.124;2022-12-10T15:22:46;34.92;;;20.80;;
46705;SDS011;33519;50.712;7.124;2022-12-10T15:25:14;37.40;;;21.75;;
46705;SDS011;33519;50.712;7.124;2022-12-10T15:27:54;38.47;;;21.85;;
46705;SDS011;33519;50.712;7.124;2022-12-10T15:30:24;41.55;;;21.58;;
46705;SDS011;33519;50.712;7.124;2022-12-10T15:32:58;37.90;;;22.40;;
46705;SDS011;33519;50.712;7.124;2022-12-10T15:35:25;36.97;;;22.05;;
46705;SDS011;33519;50.712;7.124;2022-12-10T15:37:56;37.08;;;21.58;;
46705;SDS011;33519;50.712;7.124;2022-12-10T15:40:28;34.05;;;20.95;;
46705;SDS011;33519;50.712;7.124;2022-12-10T15:43:19;36.45;;;21.05;;
46705;SDS011;33519;50.712;7.124;2022-12-10T15:45:49;36.65;;;19.83;;
46705;SDS011;33519;50.712;7.124;2022-12-10T15:48:16;38.25;;;22.25;;
46705;SDS011;33519;50.712;7.124;2022-12-10T15:50:50;36.55;;;22.05;;
46705;SDS011;33519;50.712;7.124;2022-12-10T15:53:23;42.15;;;21.38;;
46705;SDS011;33519;50.712;7.124;2022-12-10T15:56:00;40.33;;;22.98;;
46705;SDS011;33519;50.712;7.124;2022-12-10T16:00:56;44.08;;;20.30;;
46705;SDS011;33519;50.712;7.124;2022-12-10T16:03:23;47.35;;;23.35;;
46705;SDS011;33519;50.712;7.124;2022-12-10T16:05:53;47.38;;;22.45;;
46705;SDS011;33519;50.712;7.124;2022-12-10T16:08:21;35.08;;;21.00;;
46705;SDS011;33519;50.712;7.124;2022-12-10T16:10:59;33.38;;;19.15;;
46705;SDS011;33519;50.712;7.124;2022-12-10T16:13:29;37.47;;;20.10;;
46705;SDS011;33519;50.712;7.124;2022-12-10T16:16:00;36.17;;;20.58;;
46705;SDS011;33519;50.712;7.124;2022-12-10T16:18:30;41.53;;;20.58;;
46705;SDS011;33519;50.712;7.124;2022-12-10T16:20:59;38.33;;;19.48;;
46705;SDS011;33519;50.712;7.124;2022-12-10T16:23:26;35.38;;;19.27;;
46705;SDS011;33519;50.712;7.124;2022-12-10T16:25:53;38.13;;;21.73;;
46705;SDS011;33519;50.712;7.124;2022-12-10T16:28:20;40.42;;;23.58;;
46705;SDS011;33519;50.712;7.124;2022-12-10T16:30:51;38.92;;;23.42;;
46705;SDS011;33519;50.712;7.124;2022-12-10T16:33:20;36.28;;;20.25;;
46705;SDS011;33519;50.712;7.124;2022-12-10T16:35:49;47.55;;;22.70;;
46705;SDS011;33519;50.712;7.124;2022-12-10T16:38:17;39.70;;;22.05;;
46705;SDS011;33519;50.712;7.124;2022-12-10T16:40:45;37.10;;;21.88;;